Overview Statistics Trail Chart Weather Telemetry Raw packets
 

This is the latest recevied weather packets stored in our database for station/object SP2CDN-10. If no packets are shown the sender has not sent any weather packets the latest 10 day(s).

<< 10 11 12 13 14 15 16 >>
Time Temp. Humidity Pressure Rain* Wind** Luminosity Snow
1788036637 16.67° C 91% 1012.6 hPa - - - -
1788034355 17.22° C 96% 1012.5 hPa - - - -
1788032074 17.22° C 94% 1012.4 hPa - - - -
1788029794 17.22° C 90% 1012.2 hPa - - - -
1788027511 17.78° C 78% 1012 hPa - - - -
1788025229 19.44° C 73% 1011.8 hPa - - - -
1788023863 20° C 68% 1011.7 hPa - - - -
1788021576 25° C 52% 1011.6 hPa - - - -
1788019296 26.11° C 55% 1011.5 hPa - - - -
1788017012 21.67° C 64% 1011.5 hPa - - - -
1788014731 25.56° C 58% 1011.4 hPa - - - -
1788012449 23.89° C 67% 1011.2 hPa - - - -
1788010170 23.89° C 72% 1011.2 hPa - - - -
1788007886 21.11° C 85% 1010.9 hPa - - - -
1788005606 19.44° C 97% 1010.7 hPa - - - -
1788003323 22.22° C 72% 1010.7 hPa - - - -
1788001041 22.22° C 72% 1010.6 hPa - - - -
1787998760 21.67° C 77% 1010.7 hPa - - - -
1787996477 22.22° C 75% 1010.6 hPa - - - -
1787994196 21.11° C 90% 1010.4 hPa - - - -
1787991915 19.44° C 96% 1010 hPa - - - -
1787989632 18.89° C 100% 1009.8 hPa - - - -
1787987351 17.78° C 100% 1009.6 hPa - - - -
1787985069 16.67° C 100% 1008.4 hPa - - - -
1787982788 16.11° C 100% 1008.8 hPa - - - -

* Rain since midnight (hover to see other rain measurements)
** Current wind speed in m/s (hover to see current wind gust speed)